• Join FlightAware (Why Join?)
  • Login
  • US Flag 
07:35AM EDT


 

Airport Tracker/Info


-or-


 

Live Flight TrackerFlight Track Log ✈ JBU1329 ✈ 06-Jun-2013 ✈ KBOS - KBWI

Flight Track Log - Related Links

Times and Time Zones

All times are in EDT time to prevent confusion due to time zone crossing. See the JBU1329 flight status page for this flight to view local times or setup timezone preferences in your user account.

Time Position Orientation Groundspeed Altitude Reporting Facility
EDT Latitude Longitude Course Direction KTS MPH feet Rate Location/Type
09:20AM 42.3500 -71.0167 240° Southwest 165 190 900  Level KA90
09:21AM 42.3167 -70.9833 144° Southeast 208 239 2,600 2,880 Climbing KA90
09:23AM 42.3267 -70.8478 84° East 228 262 8,400 2,820 Climbing Boston Center
09:24AM 42.2975 -70.7205 228° Southwest  Level FlightAware Approximate
09:24AM 42.3211 -70.7553 95° East 239 275 10,600  Level Boston Center
09:25AM 42.2340 -70.8157 228° Southwest  Level FlightAware Approximate
09:25AM 42.2478 -70.7236 162° South 218 251 13,300  Level Boston Center
09:26AM 42.1863 -70.9265 240° Southwest  Level FlightAware Approximate
09:26AM 42.1858 -70.7644 206° Southwest 218 251 14,600  Level Boston Center
09:27AM 42.1650 -70.9022 259° West 222 255 18,700 3,060 Climbing Boston Center
09:28AM 42.1539 -71.0231 263° West 256 295 20,800 1,740 Climbing Boston Center
09:29AM 42.1431 -71.1578 264° West 315 362 22,200 1,740 Climbing Boston Center
09:30AM 42.1319 -71.2950 264° West 355 409 24,300 2,040 Climbing Boston Center
09:31AM 42.1189 -71.4353 263° West 370 426 26,300 1,800 Climbing Boston Center
09:32AM 42.1011 -71.5728 260° West 381 438 28,000 840 Climbing Boston Center
09:33AM 42.0603 -71.7075 248° West 381 438 28,000  Level Boston Center
09:34AM 42.0092 -71.8311 241° Southwest 381 438 28,000  Level Boston Center
09:35AM 41.9575 -71.9572 241° Southwest 381 438 28,000  Level Boston Center
09:36AM 41.9081 -72.0803 242° Southwest 386 444 28,000  Level Boston Center
09:37AM 41.8542 -72.2089 241° Southwest 391 450 28,000  Level Boston Center
09:38AM 41.8042 -72.3369 242° Southwest 396 456 28,000  Level Boston Center
09:39AM 41.7522 -72.4594 240° Southwest 396 456 28,000  Level Boston Center
09:40AM 41.7000 -72.5875 241° Southwest 396 456 28,000  Level Boston Center
09:41AM 41.6478 -72.7122 241° Southwest 396 456 28,000  Level Boston Center
09:42AM 41.6036 -72.8147 240° Southwest 396 456 28,000  Level Boston Center
09:43AM 41.5425 -72.9642 241° Southwest 396 456 28,000  Level Boston Center
09:44AM 41.4919 -73.0886 242° Southwest 391 450 28,000  Level Boston Center
09:45AM 41.4411 -73.2128 241° Southwest 391 450 28,000  Level Boston Center
09:46AM 41.3881 -73.3364 240° Southwest 391 450 28,000  Level Boston Center
09:47AM 41.3328 -73.4603 239° Southwest 396 456 28,000  Level Boston Center
09:49AM 41.1908 -73.7406 236° Southwest 387 445 28,000  Level New York Center
09:50AM 41.1256 -73.8478 231° Southwest 392 451 28,000  Level New York Center
09:51AM 41.0581 -73.9603 232° Southwest 392 451 28,000  Level New York Center
09:52AM 40.9906 -74.0725 231° Southwest 392 451 28,000  Level New York Center
09:53AM 40.9247 -74.1847 232° Southwest 392 451 28,000  Level New York Center
09:54AM 40.8594 -74.2856 229° Southwest 397 457 28,000  Level New York Center
09:55AM 40.7936 -74.3947 231° Southwest 397 457 28,000  Level New York Center
09:56AM 40.7275 -74.5061 232° Southwest 392 451 28,000  Level New York Center
09:57AM 40.6572 -74.6172 230° Southwest 392 451 28,000  Level New York Center
09:58AM 40.5911 -74.7283 232° Southwest 392 451 28,000 -420 Level New York Center
09:59AM 40.5189 -74.8333 228° Southwest 392 451 27,200 -1,320 Descending New York Center
10:00AM 40.4442 -74.9381 227° Southwest 392 451 25,500 -1,740 Descending New York Center
10:01AM 40.3742 -75.0372 227° Southwest 392 451 23,700 -1,740 Descending New York Center
10:02AM 40.3036 -75.1364 227° Southwest 386 444 22,100 -1,860 Descending New York Center
10:03AM 40.2308 -75.2433 228° Southwest 373 429 20,100 -1,800 Descending New York Center
10:04AM 40.1606 -75.3364 225° Southwest 368 423 18,600 -1,080 Descending New York Center
10:05AM 40.0944 -75.4272 226° Southwest 354 407 18,000 -300 Descending New York Center
10:06AM 40.0350 -75.5100 227° Southwest 354 407 18,000  Level New York Center
10:07AM 39.9622 -75.6053 225° Southwest 354 407 18,000 -60 Level New York Center
10:08AM 39.9067 -75.6906 230° Southwest 354 407 17,900 -1,020 Descending New York Center
10:09AM 39.8475 -75.8083 237° Southwest 346 398 16,000 -1,920 Descending New York Center
10:11AM 39.7500 -76.0000 237° Southwest 328 377 12,200 -1,800 Descending Potomac TRACON
10:12AM 39.7000 -76.1000 237° Southwest 292 336 10,500 -1,380 Descending Potomac TRACON
10:13AM 39.6500 -76.1833 232° Southwest 272 313 9,400 -1,440 Descending Potomac TRACON
10:14AM 39.6167 -76.2833 247° West 276 318 7,600 -1,800 Descending Potomac TRACON
10:15AM 39.5667 -76.3667 232° Southwest 272 313 5,800 -1,680 Descending Potomac TRACON
10:16AM 39.5333 -76.4667 247° West 269 310 4,100 -900 Descending Potomac TRACON
10:17AM 39.5000 -76.5500 243° Southwest 269 310 4,000 -60 Descending Potomac TRACON
10:18AM 39.4500 -76.6167 226° Southwest 263 303 4,000 -180 Level Potomac TRACON
10:19AM 39.4000 -76.6833 226° Southwest 257 296 3,700 -540 Descending Potomac TRACON
10:20AM 39.3500 -76.7333 218° Southwest 247 284 3,000 -360 Descending Potomac TRACON
10:21AM 39.3000 -76.7833 218° Southwest 188 216 3,000 -240 Level Potomac TRACON
10:22AM 39.2667 -76.8167 218° Southwest 185 213 2,600 -480 Descending Potomac TRACON
10:23AM 39.2167 -76.8167 180° South 180 207 2,200 -600 Descending Potomac TRACON
10:24AM 39.1833 -76.7833 142° Southeast 170 196 1,500 -720 Descending Potomac TRACON
10:25AM 39.1833 -76.7333 90° East 141 162 800 -720 Descending Potomac TRACON